Alpine, AL (35014)

9:30 AM CDT on September 04, 2015 (GMT -0500)
Sycamore,Alabama | | Change Station
CLOSE
Current Station
Personal Weather Station
Location: Sycamore, AL
Elevation: 552 ft
Nearby Weather Stations

Elev 552 ft 33.26 °N, 86.21 °W | Updated 7 seconds ago

Clear
Clear
79.2 °F
Feels Like 82 °F
N
3.1
Wind Variable Wind from NW
Gusts 5.4 mph

Today
High -- | Low -- °F
--% Chance of Precip.
Yesterday
High -- | Low -- °F
Precip. -- in
6:20 AM 7:06 PM
Waning Gibbous, 59% visible
Pressure 30.02 in
Visibility 10.0 miles
Clouds Clear
Heat Index 82 °F
Dew Point 71 °F
Humidity 77%
Rainfall 0.00 in
Snow Depth Not available.
UV 3 out of 12
Pollen 9.40 out of 12
Air Quality Not available.
Flu Activity Not available.
METAR KANB 041353Z AUTO 00000KT 10SM CLR 24/21 A3004 RMK AO2 SLP164 T02440206
Pressure 30.02 in
Visibility 10.0 miles
Clouds Clear
Heat Index 82 °F
Dew Point 71 °F
Humidity 77%
Rainfall 0.00 in
Snow Depth Not available.
UV 3 out of 12
Pollen 9.40 out of 12
Air Quality Not available.
Flu Activity Not available.
METAR KANB 041353Z AUTO 00000KT 10SM CLR 24/21 A3004 RMK AO2 SLP164 T02440206

10-Day Weather Forecast

×

Almanac

Astronomy

Sep. 04, 2015 Rise Set
Actual Time
Civil Twilight
Nautical Twilight
Astronomical Twilight
Moon
Length of Visible Light
Length of Day
Tomorrow will be .
, % of the Moon is Illuminated

Today's Extremes

State Highs State Lows

Community

WunderPhotos

Upload Photos

1,852,186 photos uploaded!

WunderBlogs® & News

Nearby

Air Quality

  Air Quality AQ Index Pollutant
Not available.

Snow Depth

Station Depth Elevation

Earthquake Activity

City Distance Mag. Time & Date
Minimum magnitude displayed is 2.5.

Coastal Water Temperatures

Place Temperature

Stations

Nearby Weather Stations

Station Location Temp. Windchill Dew Point Humidity Wind Precip. Elev Updated Type